sensor_id;sensor_type;location;lat;lon;timestamp;pressure;altitude;pressure_sealevel;temperature;humidity
13312;BME280;34033;48.672;9.376;2023-03-04T00:01:10;99087.59;;;5.86;57.03
13312;BME280;34033;48.672;9.376;2023-03-04T00:03:35;99092.22;;;5.82;57.26
13312;BME280;34033;48.672;9.376;2023-03-04T00:06:01;99082.00;;;5.74;58.04
13312;BME280;34033;48.672;9.376;2023-03-04T00:08:26;99089.88;;;5.72;58.25
13312;BME280;34033;48.672;9.376;2023-03-04T00:10:52;99088.72;;;5.73;57.52
13312;BME280;34033;48.672;9.376;2023-03-04T00:13:18;99088.59;;;5.70;57.78
13312;BME280;34033;48.672;9.376;2023-03-04T00:15:45;99085.94;;;5.73;56.72
13312;BME280;34033;48.672;9.376;2023-03-04T00:18:10;99089.28;;;5.67;57.79
13312;BME280;34033;48.672;9.376;2023-03-04T00:20:35;99090.09;;;5.67;56.89
13312;BME280;34033;48.672;9.376;2023-03-04T00:23:01;99086.38;;;5.63;57.36
13312;BME280;34033;48.672;9.376;2023-03-04T00:25:26;99090.50;;;5.57;58.15
13312;BME280;34033;48.672;9.376;2023-03-04T00:27:51;99081.84;;;5.59;57.17
13312;BME280;34033;48.672;9.376;2023-03-04T00:30:17;99085.31;;;5.56;57.98
13312;BME280;34033;48.672;9.376;2023-03-04T00:32:42;99085.31;;;5.56;57.84
13312;BME280;34033;48.672;9.376;2023-03-04T00:35:08;99081.41;;;5.57;57.45
13312;BME280;34033;48.672;9.376;2023-03-04T00:37:33;99087.50;;;5.50;58.43
13312;BME280;34033;48.672;9.376;2023-03-04T00:39:58;99088.66;;;5.49;59.29
13312;BME280;34033;48.672;9.376;2023-03-04T00:42:24;99085.41;;;5.47;59.80
13312;BME280;34033;48.672;9.376;2023-03-04T00:44:49;99088.78;;;5.53;59.63
13312;BME280;34033;48.672;9.376;2023-03-04T00:47:15;99083.09;;;5.49;59.96
13312;BME280;34033;48.672;9.376;2023-03-04T00:49:40;99086.38;;;5.51;60.74
13312;BME280;34033;48.672;9.376;2023-03-04T00:52:06;99089.13;;;5.51;60.69
13312;BME280;34033;48.672;9.376;2023-03-04T00:54:31;99093.50;;;5.52;59.41
13312;BME280;34033;48.672;9.376;2023-03-04T00:56:57;99090.06;;;5.55;59.49
13312;BME280;34033;48.672;9.376;2023-03-04T00:59:22;99087.75;;;5.57;59.12
13312;BME280;34033;48.672;9.376;2023-03-04T01:01:47;99083.72;;;5.55;59.05
13312;BME280;34033;48.672;9.376;2023-03-04T01:04:13;99085.41;;;5.47;59.02
13312;BME280;34033;48.672;9.376;2023-03-04T01:06:38;99084.47;;;5.43;59.64
13312;BME280;34033;48.672;9.376;2023-03-04T01:09:03;99082.84;;;5.42;59.64
13312;BME280;34033;48.672;9.376;2023-03-04T01:11:29;99078.09;;;5.42;59.82
13312;BME280;34033;48.672;9.376;2023-03-04T01:13:54;99077.03;;;5.35;60.48
13312;BME280;34033;48.672;9.376;2023-03-04T01:16:19;99077.03;;;5.35;60.49
13312;BME280;34033;48.672;9.376;2023-03-04T01:18:45;99080.16;;;5.33;60.04
13312;BME280;34033;48.672;9.376;2023-03-04T01:21:11;99086.03;;;5.32;60.26
13312;BME280;34033;48.672;9.376;2023-03-04T01:23:37;99076.78;;;5.28;60.30
13312;BME280;34033;48.672;9.376;2023-03-04T01:26:03;99070.75;;;5.26;60.11
13312;BME280;34033;48.672;9.376;2023-03-04T01:28:28;99072.41;;;5.27;59.99
13312;BME280;34033;48.672;9.376;2023-03-04T01:30:54;99068.47;;;5.28;60.03
13312;BME280;34033;48.672;9.376;2023-03-04T01:33:19;99065.69;;;5.28;60.10
13312;BME280;34033;48.672;9.376;2023-03-04T01:35:44;99075.16;;;5.27;60.44
13312;BME280;34033;48.672;9.376;2023-03-04T01:38:10;99069.41;;;5.32;60.77
13312;BME280;34033;48.672;9.376;2023-03-04T01:40:37;99071.03;;;5.33;60.15
13312;BME280;34033;48.672;9.376;2023-03-04T01:43:03;99069.88;;;5.34;59.69
13312;BME280;34033;48.672;9.376;2023-03-04T01:45:29;99073.81;;;5.33;59.27
13312;BME280;34033;48.672;9.376;2023-03-04T01:47:56;99072.19;;;5.32;59.49
13312;BME280;34033;48.672;9.376;2023-03-04T01:50:40;99066.38;;;5.25;59.50
13312;BME280;34033;48.672;9.376;2023-03-04T01:53:05;99064.50;;;5.17;59.64
13312;BME280;34033;48.672;9.376;2023-03-04T01:55:31;99059.97;;;5.12;59.99
13312;BME280;34033;48.672;9.376;2023-03-04T01:57:56;99060.63;;;5.09;60.45
13312;BME280;34033;48.672;9.376;2023-03-04T02:02:52;99063.63;;;5.04;60.25
13312;BME280;34033;48.672;9.376;2023-03-04T02:05:19;99056.34;;;4.99;59.52
13312;BME280;34033;48.672;9.376;2023-03-04T02:07:45;99063.69;;;4.95;59.43
13312;BME280;34033;48.672;9.376;2023-03-04T02:10:11;99059.97;;;4.91;59.25
13312;BME280;34033;48.672;9.376;2023-03-04T02:12:37;99055.78;;;4.85;60.29
13312;BME280;34033;48.672;9.376;2023-03-04T02:15:03;99064.69;;;4.91;59.97
13312;BME280;34033;48.672;9.376;2023-03-04T02:17:31;99057.56;;;4.90;60.64
13312;BME280;34033;48.672;9.376;2023-03-04T02:22:30;99053.69;;;4.82;60.28
13312;BME280;34033;48.672;9.376;2023-03-04T02:25:06;99049.50;;;4.76;60.30
13312;BME280;34033;48.672;9.376;2023-03-04T02:27:35;99055.03;;;4.76;60.16
13312;BME280;34033;48.672;9.376;2023-03-04T02:30:00;99051.78;;;4.74;59.86
13312;BME280;34033;48.672;9.376;2023-03-04T02:32:26;99054.56;;;4.74;59.77
13312;BME280;34033;48.672;9.376;2023-03-04T02:34:51;99054.75;;;4.69;59.93
13312;BME280;34033;48.672;9.376;2023-03-04T02:37:18;99059.03;;;4.67;60.23
13312;BME280;34033;48.672;9.376;2023-03-04T02:39:45;99052.19;;;4.64;60.48
13312;BME280;34033;48.672;9.376;2023-03-04T02:42:12;99060.50;;;4.64;60.68
13312;BME280;34033;48.672;9.376;2023-03-04T02:44:42;99064.44;;;4.63;60.67
13312;BME280;34033;48.672;9.376;2023-03-04T02:47:12;99066.41;;;4.63;61.27
13312;BME280;34033;48.672;9.376;2023-03-04T02:49:39;99060.69;;;4.59;61.61
13312;BME280;34033;48.672;9.376;2023-03-04T02:52:12;99064.44;;;4.63;61.62
13312;BME280;34033;48.672;9.376;2023-03-04T02:54:38;99064.91;;;4.65;60.85
13312;BME280;34033;48.672;9.376;2023-03-04T02:57:06;99063.63;;;4.63;61.72
13312;BME280;34033;48.672;9.376;2023-03-04T02:59:32;99055.56;;;4.70;60.86
13312;BME280;34033;48.672;9.376;2023-03-04T03:01:57;99059.16;;;4.70;61.58
13312;BME280;34033;48.672;9.376;2023-03-04T03:04:24;99062.41;;;4.72;61.13
13312;BME280;34033;48.672;9.376;2023-03-04T03:06:50;99058.13;;;4.75;61.02
13312;BME280;34033;48.672;9.376;2023-03-04T03:09:16;99066.81;;;4.73;60.01
13312;BME280;34033;48.672;9.376;2023-03-04T03:11:41;99066.31;;;4.71;59.26
13312;BME280;34033;48.672;9.376;2023-03-04T03:14:07;99066.03;;;4.64;59.70
13312;BME280;34033;48.672;9.376;2023-03-04T03:16:33;99064.91;;;4.65;60.12
13312;BME280;34033;48.672;9.376;2023-03-04T03:18:58;99067.22;;;4.63;61.00
13312;BME280;34033;48.672;9.376;2023-03-04T03:21:24;99065.38;;;4.67;59.50
13312;BME280;34033;48.672;9.376;2023-03-04T03:23:49;99063.63;;;4.63;59.55
13312;BME280;34033;48.672;9.376;2023-03-04T03:26:15;99059.75;;;4.55;59.41
13312;BME280;34033;48.672;9.376;2023-03-04T03:28:40;99059.75;;;4.55;59.17
13312;BME280;34033;48.672;9.376;2023-03-04T03:31:06;99058.13;;;4.54;59.97
13312;BME280;34033;48.672;9.376;2023-03-04T03:33:31;99062.66;;;4.58;60.03
13312;BME280;34033;48.672;9.376;2023-03-04T03:35:57;99055.84;;;4.56;59.97
13312;BME280;34033;48.672;9.376;2023-03-04T03:38:22;99054.22;;;4.55;60.37
13312;BME280;34033;48.672;9.376;2023-03-04T03:40:47;99055.84;;;4.56;60.22
13312;BME280;34033;48.672;9.376;2023-03-04T03:43:13;99062.53;;;4.55;60.86
13312;BME280;34033;48.672;9.376;2023-03-04T03:45:38;99059.44;;;4.56;60.77
13312;BME280;34033;48.672;9.376;2023-03-04T03:48:04;99063.22;;;4.52;60.41
13312;BME280;34033;48.672;9.376;2023-03-04T03:50:29;99056.38;;;4.49;60.19
13312;BME280;34033;48.672;9.376;2023-03-04T03:52:55;99059.00;;;4.46;59.91
13312;BME280;34033;48.672;9.376;2023-03-04T03:55:20;99060.34;;;4.40;60.47
13312;BME280;34033;48.672;9.376;2023-03-04T03:57:46;99058.91;;;4.34;60.27
13312;BME280;34033;48.672;9.376;2023-03-04T04:00:12;99052.25;;;4.35;61.05
13312;BME280;34033;48.672;9.376;2023-03-04T04:02:38;99056.59;;;4.36;61.11
13312;BME280;34033;48.672;9.376;2023-03-04T04:05:03;99061.50;;;4.39;60.55
13312;BME280;34033;48.672;9.376;2023-03-04T04:07:30;99061.50;;;4.39;60.22
13312;BME280;34033;48.672;9.376;2023-03-04T04:09:56;99055.44;;;4.45;59.59
13312;BME280;34033;48.672;9.376;2023-03-04T04:12:22;99056.25;;;4.46;59.90
13312;BME280;34033;48.672;9.376;2023-03-04T04:14:47;99051.34;;;4.43;59.97
13312;BME280;34033;48.672;9.376;2023-03-04T04:17:12;99062.44;;;4.43;60.26
13312;BME280;34033;48.672;9.376;2023-03-04T04:19:38;99060.81;;;4.42;60.23
13312;BME280;34033;48.672;9.376;2023-03-04T04:22:05;99051.34;;;4.43;59.66
13312;BME280;34033;48.672;9.376;2023-03-04T04:24:31;99054.13;;;4.43;60.00
13312;BME280;34033;48.672;9.376;2023-03-04T04:26:56;99056.91;;;4.43;59.59
13312;BME280;34033;48.672;9.376;2023-03-04T04:29:22;99058.38;;;4.40;58.68
13312;BME280;34033;48.672;9.376;2023-03-04T04:31:48;99056.47;;;4.32;58.82
13312;BME280;34033;48.672;9.376;2023-03-04T04:34:13;99064.72;;;4.11;58.66
13312;BME280;34033;48.672;9.376;2023-03-04T04:36:38;99057.94;;;4.00;60.52
13312;BME280;34033;48.672;9.376;2023-03-04T04:39:04;99065.44;;;4.00;61.03
13312;BME280;34033;48.672;9.376;2023-03-04T04:41:38;99062.97;;;3.98;61.46
13312;BME280;34033;48.672;9.376;2023-03-04T04:44:04;99062.34;;;4.01;61.05
13312;BME280;34033;48.672;9.376;2023-03-04T04:46:30;99067.50;;;4.11;60.54
13312;BME280;34033;48.672;9.376;2023-03-04T04:48:55;99066.81;;;4.14;60.04
13312;BME280;34033;48.672;9.376;2023-03-04T04:51:21;99065.88;;;4.10;60.40
13312;BME280;34033;48.672;9.376;2023-03-04T04:53:47;99067.50;;;4.11;59.69
13312;BME280;34033;48.672;9.376;2023-03-04T04:56:18;99066.81;;;4.14;59.80
13312;BME280;34033;48.672;9.376;2023-03-04T04:58:45;99068.44;;;4.15;60.47
13312;BME280;34033;48.672;9.376;2023-03-04T05:01:11;99067.78;;;4.18;59.98
13312;BME280;34033;48.672;9.376;2023-03-04T05:03:37;99068.25;;;4.20;59.79
13312;BME280;34033;48.672;9.376;2023-03-04T05:06:04;99082.91;;;4.21;58.91
13312;BME280;34033;48.672;9.376;2023-03-04T05:08:30;99073.16;;;4.15;59.25
13312;BME280;34033;48.672;9.376;2023-03-04T05:10:56;99071.88;;;4.12;59.07
13312;BME280;34033;48.672;9.376;2023-03-04T05:13:21;99070.13;;;4.08;59.02
13312;BME280;34033;48.672;9.376;2023-03-04T05:15:47;99069.63;;;4.06;59.30
13312;BME280;34033;48.672;9.376;2023-03-04T05:18:12;99066.25;;;4.00;59.80
13312;BME280;34033;48.672;9.376;2023-03-04T05:20:38;99067.25;;;3.96;59.95
13312;BME280;34033;48.672;9.376;2023-03-04T05:23:03;99072.16;;;3.90;59.65
13312;BME280;34033;48.672;9.376;2023-03-04T05:25:28;99069.88;;;3.84;59.37
13312;BME280;34033;48.672;9.376;2023-03-04T05:27:54;99074.19;;;3.55;59.72
13312;BME280;34033;48.672;9.376;2023-03-04T05:30:19;99072.13;;;3.35;60.67
13312;BME280;34033;48.672;9.376;2023-03-04T05:32:45;99083.19;;;3.35;61.21
13312;BME280;34033;48.672;9.376;2023-03-04T05:35:10;99083.19;;;3.35;61.59
13312;BME280;34033;48.672;9.376;2023-03-04T05:37:35;99076.84;;;3.34;62.61
13312;BME280;34033;48.672;9.376;2023-03-04T05:40:01;99077.63;;;3.44;62.36
13312;BME280;34033;48.672;9.376;2023-03-04T05:42:26;99080.84;;;3.54;61.45
13312;BME280;34033;48.672;9.376;2023-03-04T05:44:51;99079.88;;;3.59;60.20
13312;BME280;34033;48.672;9.376;2023-03-04T05:47:17;99087.22;;;3.46;60.44
13312;BME280;34033;48.672;9.376;2023-03-04T05:49:42;99087.56;;;3.27;61.13
13312;BME280;34033;48.672;9.376;2023-03-04T05:52:08;99088.06;;;3.21;60.89
13312;BME280;34033;48.672;9.376;2023-03-04T05:54:34;99081.59;;;2.91;61.72
13312;BME280;34033;48.672;9.376;2023-03-04T05:56:59;99083.34;;;2.87;62.02
13312;BME280;34033;48.672;9.376;2023-03-04T05:59:25;99084.34;;;2.91;62.85
13312;BME280;34033;48.672;9.376;2023-03-04T06:01:50;99093.28;;;3.05;62.38
13312;BME280;34033;48.672;9.376;2023-03-04T06:04:15;99094.88;;;3.15;62.56
13312;BME280;34033;48.672;9.376;2023-03-04T06:06:41;99101.72;;;3.26;62.26
13312;BME280;34033;48.672;9.376;2023-03-04T06:09:06;99101.03;;;3.38;61.76
13312;BME280;34033;48.672;9.376;2023-03-04T06:11:31;99110.63;;;3.49;61.54
13312;BME280;34033;48.672;9.376;2023-03-04T06:13:56;99110.94;;;3.56;61.25
13312;BME280;34033;48.672;9.376;2023-03-04T06:16:22;99109.78;;;3.65;60.98
13312;BME280;34033;48.672;9.376;2023-03-04T06:18:47;99109.16;;;3.68;60.51
13312;BME280;34033;48.672;9.376;2023-03-04T06:21:12;99114.63;;;3.77;60.30
13312;BME280;34033;48.672;9.376;2023-03-04T06:23:38;99114.31;;;3.78;60.60
13312;BME280;34033;48.672;9.376;2023-03-04T06:26:04;99111.22;;;3.80;60.30
13312;BME280;34033;48.672;9.376;2023-03-04T06:28:33;99119.84;;;3.78;60.02
13312;BME280;34033;48.672;9.376;2023-03-04T06:30:58;99120.00;;;3.82;60.12
13312;BME280;34033;48.672;9.376;2023-03-04T06:33:24;99116.22;;;3.87;60.35
13312;BME280;34033;48.672;9.376;2023-03-04T06:35:53;99121.94;;;3.90;61.10
13312;BME280;34033;48.672;9.376;2023-03-04T06:38:19;99126.16;;;3.96;59.73
13312;BME280;34033;48.672;9.376;2023-03-04T06:40:44;99131.00;;;3.99;60.29
13312;BME280;34033;48.672;9.376;2023-03-04T06:43:10;99134.41;;;4.05;60.20
13312;BME280;34033;48.672;9.376;2023-03-04T06:45:37;99138.94;;;4.09;60.31
13312;BME280;34033;48.672;9.376;2023-03-04T06:48:02;99136.31;;;4.22;60.39
13312;BME280;34033;48.672;9.376;2023-03-04T06:50:28;99139.75;;;4.18;59.94
13312;BME280;34033;48.672;9.376;2023-03-04T06:52:55;99136.31;;;4.22;59.05
13312;BME280;34033;48.672;9.376;2023-03-04T06:55:21;99141.03;;;4.21;59.18
13312;BME280;34033;48.672;9.376;2023-03-04T06:57:46;99145.75;;;4.20;58.06
13312;BME280;34033;48.672;9.376;2023-03-04T07:00:12;99148.50;;;4.20;59.50
13312;BME280;34033;48.672;9.376;2023-03-04T07:02:38;99143.78;;;4.21;59.41
13312;BME280;34033;48.672;9.376;2023-03-04T07:05:03;99141.34;;;4.19;58.96
13312;BME280;34033;48.672;9.376;2023-03-04T07:07:29;99153.59;;;4.18;58.42
13312;BME280;34033;48.672;9.376;2023-03-04T07:09:54;99158.94;;;4.15;59.71
13312;BME280;34033;48.672;9.376;2023-03-04T07:12:19;99152.91;;;4.22;59.09
13312;BME280;34033;48.672;9.376;2023-03-04T07:14:45;99154.34;;;4.28;60.57
13312;BME280;34033;48.672;9.376;2023-03-04T07:17:10;99158.88;;;4.41;60.72
13312;BME280;34033;48.672;9.376;2023-03-04T07:19:35;99162.69;;;4.57;60.10
13312;BME280;34033;48.672;9.376;2023-03-04T07:22:01;99160.16;;;4.73;60.20
13312;BME280;34033;48.672;9.376;2023-03-04T07:24:26;99166.59;;;4.85;59.85
13312;BME280;34033;48.672;9.376;2023-03-04T07:26:52;99165.75;;;4.93;59.83
13312;BME280;34033;48.672;9.376;2023-03-04T07:29:17;99171.47;;;4.88;59.52
13312;BME280;34033;48.672;9.376;2023-03-04T07:31:42;99177.09;;;5.00;60.30
13312;BME280;34033;48.672;9.376;2023-03-04T07:34:11;99173.66;;;5.03;59.23
13312;BME280;34033;48.672;9.376;2023-03-04T07:36:37;99182.47;;;5.06;59.90
13312;BME280;34033;48.672;9.376;2023-03-04T07:39:03;99176.59;;;5.07;58.70
13312;BME280;34033;48.672;9.376;2023-03-04T07:41:29;99177.94;;;5.22;59.44
13312;BME280;34033;48.672;9.376;2023-03-04T07:43:56;99187.53;;;5.24;59.43
13312;BME280;34033;48.672;9.376;2023-03-04T07:46:22;99174.97;;;5.27;59.41
13312;BME280;34033;48.672;9.376;2023-03-04T07:48:47;99178.47;;;5.36;59.71
13312;BME280;34033;48.672;9.376;2023-03-04T07:51:18;99179.88;;;5.42;59.48
13312;BME280;34033;48.672;9.376;2023-03-04T07:53:47;99188.63;;;5.53;59.79
13312;BME280;34033;48.672;9.376;2023-03-04T07:56:15;99180.91;;;5.58;59.48
13312;BME280;34033;48.672;9.376;2023-03-04T07:58:40;99183.56;;;5.55;59.95
13312;BME280;34033;48.672;9.376;2023-03-04T08:01:14;99192.19;;;5.53;59.44
13312;BME280;34033;48.672;9.376;2023-03-04T08:03:40;99187.13;;;5.55;59.83
13312;BME280;34033;48.672;9.376;2023-03-04T08:06:07;99190.19;;;5.62;59.11
13312;BME280;34033;48.672;9.376;2023-03-04T08:08:33;99189.09;;;5.55;59.67
13312;BME280;34033;48.672;9.376;2023-03-04T08:10:59;99199.50;;;5.58;59.27
13312;BME280;34033;48.672;9.376;2023-03-04T08:13:24;99188.75;;;5.56;58.77
13312;BME280;34033;48.672;9.376;2023-03-04T08:15:50;99192.34;;;5.57;59.77
13312;BME280;34033;48.672;9.376;2023-03-04T08:18:15;99191.19;;;5.58;59.87
13312;BME280;34033;48.672;9.376;2023-03-04T08:20:41;99202.28;;;5.58;59.48
13312;BME280;34033;48.672;9.376;2023-03-04T08:23:09;99201.06;;;5.26;59.33
13312;BME280;34033;48.672;9.376;2023-03-04T08:25:38;99206.31;;;5.19;60.47
13312;BME280;34033;48.672;9.376;2023-03-04T08:28:04;99209.63;;;4.83;61.29
13312;BME280;34033;48.672;9.376;2023-03-04T08:30:29;99208.66;;;4.49;62.46
13312;BME280;34033;48.672;9.376;2023-03-04T08:32:55;99217.69;;;4.29;63.58
13312;BME280;34033;48.672;9.376;2023-03-04T08:35:20;99218.50;;;4.30;64.14
13312;BME280;34033;48.672;9.376;2023-03-04T08:37:45;99213.94;;;4.25;64.62
13312;BME280;34033;48.672;9.376;2023-03-04T08:40:11;99220.91;;;4.40;64.39
13312;BME280;34033;48.672;9.376;2023-03-04T08:42:37;99219.84;;;4.61;64.58
13312;BME280;34033;48.672;9.376;2023-03-04T08:45:03;99210.97;;;4.77;63.67
13312;BME280;34033;48.672;9.376;2023-03-04T08:47:28;99219.38;;;4.89;64.05
13312;BME280;34033;48.672;9.376;2023-03-04T08:49:53;99218.31;;;5.02;63.44
13312;BME280;34033;48.672;9.376;2023-03-04T08:52:19;99224.06;;;4.68;62.93
13312;BME280;34033;48.672;9.376;2023-03-04T08:54:44;99218.31;;;4.35;63.74
13312;BME280;34033;48.672;9.376;2023-03-04T08:57:09;99223.72;;;4.23;64.68
13312;BME280;34033;48.672;9.376;2023-03-04T08:59:35;99225.72;;;4.05;65.39
13312;BME280;34033;48.672;9.376;2023-03-04T09:02:00;99232.84;;;4.14;65.16
13312;BME280;34033;48.672;9.376;2023-03-04T09:04:25;99240.34;;;4.14;64.78
13312;BME280;34033;48.672;9.376;2023-03-04T09:06:51;99231.09;;;3.93;64.83
13312;BME280;34033;48.672;9.376;2023-03-04T09:09:17;99237.59;;;4.05;66.05
13312;BME280;34033;48.672;9.376;2023-03-04T09:11:42;99231.06;;;4.10;65.22
13312;BME280;34033;48.672;9.376;2023-03-04T09:14:07;99231.91;;;3.93;64.94
13312;BME280;34033;48.672;9.376;2023-03-04T09:16:33;99235.81;;;4.01;65.68
13312;BME280;34033;48.672;9.376;2023-03-04T09:18:59;99230.47;;;3.96;65.62
13312;BME280;34033;48.672;9.376;2023-03-04T09:21:24;99239.75;;;3.91;65.42
13312;BME280;34033;48.672;9.376;2023-03-04T09:23:50;99237.31;;;3.90;65.84
13312;BME280;34033;48.672;9.376;2023-03-04T09:26:24;99243.81;;;4.02;66.40
13312;BME280;34033;48.672;9.376;2023-03-04T09:28:55;99243.78;;;4.11;65.88
13312;BME280;34033;48.672;9.376;2023-03-04T09:31:21;99241.47;;;4.22;65.49
13312;BME280;34033;48.672;9.376;2023-03-04T09:33:47;99241.91;;;4.41;65.56
13312;BME280;34033;48.672;9.376;2023-03-04T09:36:13;99243.06;;;4.40;64.34
13312;BME280;34033;48.672;9.376;2023-03-04T09:38:39;99239.66;;;4.34;64.72
13312;BME280;34033;48.672;9.376;2023-03-04T09:41:08;99236.41;;;4.32;64.68
13312;BME280;34033;48.672;9.376;2023-03-04T09:43:37;99235.94;;;4.22;64.94
13312;BME280;34033;48.672;9.376;2023-03-04T09:46:10;99238.56;;;4.18;66.02
13312;BME280;34033;48.672;9.376;2023-03-04T09:48:49;99237.09;;;4.03;65.72
13312;BME280;34033;48.672;9.376;2023-03-04T09:51:22;99226.34;;;4.10;66.24
13312;BME280;34033;48.672;9.376;2023-03-04T09:56:33;99241.75;;;4.37;65.79
13312;BME280;34033;48.672;9.376;2023-03-04T09:59:02;99234.91;;;4.43;65.10
13312;BME280;34033;48.672;9.376;2023-03-04T10:04:16;99232.94;;;4.44;64.51
13312;BME280;34033;48.672;9.376;2023-03-04T10:06:43;99235.38;;;4.45;64.36
13312;BME280;34033;48.672;9.376;2023-03-04T10:09:40;99234.31;;;4.67;64.53
13312;BME280;34033;48.672;9.376;2023-03-04T10:12:12;99230.59;;;4.92;64.38
13312;BME280;34033;48.672;9.376;2023-03-04T10:14:44;99226.56;;;4.90;62.60
13312;BME280;34033;48.672;9.376;2023-03-04T10:17:28;99228.66;;;4.93;62.64
13312;BME280;34033;48.672;9.376;2023-03-04T10:20:12;99220.53;;;4.88;61.62
13312;BME280;34033;48.672;9.376;2023-03-04T10:22:45;99233.53;;;4.58;62.26
13312;BME280;34033;48.672;9.376;2023-03-04T10:28:02;99228.47;;;4.60;62.45
13312;BME280;34033;48.672;9.376;2023-03-04T10:33:24;99230.03;;;4.78;62.28
13312;BME280;34033;48.672;9.376;2023-03-04T10:38:39;99216.56;;;4.68;62.33
13312;BME280;34033;48.672;9.376;2023-03-04T10:41:13;99225.31;;;4.79;62.14
13312;BME280;34033;48.672;9.376;2023-03-04T10:43:39;99222.13;;;4.59;62.11
13312;BME280;34033;48.672;9.376;2023-03-04T10:46:10;99223.50;;;4.45;62.37
13312;BME280;34033;48.672;9.376;2023-03-04T10:48:37;99222.28;;;4.63;63.02
13312;BME280;34033;48.672;9.376;2023-03-04T10:51:25;99222.19;;;4.80;62.82
13312;BME280;34033;48.672;9.376;2023-03-04T10:53:59;99209.31;;;4.84;62.04
13312;BME280;34033;48.672;9.376;2023-03-04T10:56:37;99220.84;;;4.86;62.00
13312;BME280;34033;48.672;9.376;2023-03-04T11:01:57;99204.94;;;5.04;61.99
13312;BME280;34033;48.672;9.376;2023-03-04T11:04:24;99203.41;;;5.15;62.06
13312;BME280;34033;48.672;9.376;2023-03-04T11:06:50;99200.41;;;5.29;61.95
13312;BME280;34033;48.672;9.376;2023-03-04T11:09:30;99200.25;;;5.46;61.41
13312;BME280;34033;48.672;9.376;2023-03-04T11:11:58;99192.88;;;5.71;61.08
13312;BME280;34033;48.672;9.376;2023-03-04T11:16:59;99192.47;;;6.14;59.05
13312;BME280;34033;48.672;9.376;2023-03-04T11:19:37;99187.91;;;6.42;58.78
13312;BME280;34033;48.672;9.376;2023-03-04T11:22:04;99181.91;;;6.64;57.42
13312;BME280;34033;48.672;9.376;2023-03-04T11:24:33;99184.91;;;6.84;56.26
13312;BME280;34033;48.672;9.376;2023-03-04T11:27:23;99177.50;;;6.88;55.10
13312;BME280;34033;48.672;9.376;2023-03-04T11:30:14;99169.03;;;7.08;56.15
13312;BME280;34033;48.672;9.376;2023-03-04T11:32:44;99164.94;;;7.18;55.34
13312;BME280;34033;48.672;9.376;2023-03-04T11:35:19;99164.38;;;7.25;54.42
13312;BME280;34033;48.672;9.376;2023-03-04T11:38:16;99157.06;;;7.32;53.92
13312;BME280;34033;48.672;9.376;2023-03-04T11:40:45;99153.91;;;7.34;53.66
13312;BME280;34033;48.672;9.376;2023-03-04T11:43:19;99157.63;;;7.38;53.40
13312;BME280;34033;48.672;9.376;2023-03-04T11:54:21;99155.16;;;7.48;53.37
13312;BME280;34033;48.672;9.376;2023-03-04T11:56:56;99147.72;;;7.52;52.96
13312;BME280;34033;48.672;9.376;2023-03-04T11:59:49;99143.28;;;7.64;52.21
13312;BME280;34033;48.672;9.376;2023-03-04T12:02:30;99127.03;;;7.66;52.73
13312;BME280;34033;48.672;9.376;2023-03-04T12:07:42;99130.41;;;7.59;52.71
13312;BME280;34033;48.672;9.376;2023-03-04T12:13:20;99118.75;;;7.13;50.89
13312;BME280;34033;48.672;9.376;2023-03-04T12:34:58;99092.66;;;6.42;53.35
13312;BME280;34033;48.672;9.376;2023-03-04T12:45:38;99065.41;;;6.84;53.00
13312;BME280;34033;48.672;9.376;2023-03-04T12:51:08;99071.13;;;7.15;52.96
13312;BME280;34033;48.672;9.376;2023-03-04T12:56:45;99064.84;;;7.18;51.35
13312;BME280;34033;48.672;9.376;2023-03-04T12:59:16;99070.09;;;7.07;50.27
13312;BME280;34033;48.672;9.376;2023-03-04T13:01:52;99065.34;;;7.08;50.76
13312;BME280;34033;48.672;9.376;2023-03-04T13:10:15;99057.34;;;6.66;51.06
13312;BME280;34033;48.672;9.376;2023-03-04T13:20:24;99036.84;;;6.71;51.95
13312;BME280;34033;48.672;9.376;2023-03-04T13:23:00;99044.88;;;6.48;52.88
13312;BME280;34033;48.672;9.376;2023-03-04T13:35:47;99054.63;;;5.85;53.31
13312;BME280;34033;48.672;9.376;2023-03-04T13:59:33;99052.38;;;6.23;53.11
13312;BME280;34033;48.672;9.376;2023-03-04T14:02:18;99043.63;;;6.21;53.41
13312;BME280;34033;48.672;9.376;2023-03-04T14:07:35;99053.66;;;6.14;54.06
13312;BME280;34033;48.672;9.376;2023-03-04T14:12:39;99050.66;;;5.95;54.36
13312;BME280;34033;48.672;9.376;2023-03-04T14:15:23;99050.44;;;6.00;55.35
13312;BME280;34033;48.672;9.376;2023-03-04T14:17:52;99056.56;;;6.05;54.61
13312;BME280;34033;48.672;9.376;2023-03-04T14:20:27;99060.88;;;5.82;54.57
13312;BME280;34033;48.672;9.376;2023-03-04T14:22:53;99058.78;;;5.79;55.45
13312;BME280;34033;48.672;9.376;2023-03-04T14:25:23;99047.97;;;5.53;55.61
13312;BME280;34033;48.672;9.376;2023-03-04T14:27:49;99048.91;;;5.45;55.86
13312;BME280;34033;48.672;9.376;2023-03-04T14:30:24;99049.72;;;5.58;56.39
13312;BME280;34033;48.672;9.376;2023-03-04T14:32:52;99045.09;;;5.50;55.52
13312;BME280;34033;48.672;9.376;2023-03-04T14:35:19;99049.72;;;5.13;56.38
13312;BME280;34033;48.672;9.376;2023-03-04T14:38:01;99044.06;;;5.21;56.03
13312;BME280;34033;48.672;9.376;2023-03-04T14:40:30;99037.28;;;5.31;56.66
13312;BME280;34033;48.672;9.376;2023-03-04T14:43:03;99031.88;;;5.34;55.78
13312;BME280;34033;48.672;9.376;2023-03-04T14:45:30;99028.63;;;5.32;55.67
13312;BME280;34033;48.672;9.376;2023-03-04T14:48:00;99029.72;;;5.40;56.47
13312;BME280;34033;48.672;9.376;2023-03-04T14:50:29;99028.91;;;5.07;55.67
13312;BME280;34033;48.672;9.376;2023-03-04T14:53:14;99028.84;;;4.74;57.22
13312;BME280;34033;48.672;9.376;2023-03-04T14:55:57;99030.44;;;4.54;57.21
13312;BME280;34033;48.672;9.376;2023-03-04T14:58:30;99040.03;;;4.56;57.56
13312;BME280;34033;48.672;9.376;2023-03-04T15:01:16;99032.16;;;4.67;58.72
13312;BME280;34033;48.672;9.376;2023-03-04T15:03:56;99029.31;;;4.76;57.51
13312;BME280;34033;48.672;9.376;2023-03-04T15:06:26;99022.28;;;4.78;57.46
13312;BME280;34033;48.672;9.376;2023-03-04T15:09:03;99019.09;;;4.88;57.63
13312;BME280;34033;48.672;9.376;2023-03-04T15:11:31;99021.13;;;5.00;57.17
13312;BME280;34033;48.672;9.376;2023-03-04T15:13:58;99017.13;;;5.10;57.65
13312;BME280;34033;48.672;9.376;2023-03-04T15:16:27;99009.00;;;5.04;56.86